createdAt,value
2019-01-20T00:00:39.372Z,3.30
2019-01-20T00:03:07.632Z,3.97
2019-01-20T00:05:36.199Z,4.50
2019-01-20T00:08:04.690Z,3.47
2019-01-20T00:10:32.992Z,3.20
2019-01-20T00:13:01.252Z,3.13
2019-01-20T00:15:29.714Z,2.50
2019-01-20T00:17:58.195Z,3.23
2019-01-20T00:20:26.731Z,3.87
2019-01-20T00:22:55.225Z,3.47
2019-01-20T00:25:23.632Z,8.00
2019-01-20T00:27:52.111Z,5.63
2019-01-20T00:30:20.695Z,3.60
2019-01-20T00:32:49.277Z,4.33
2019-01-20T00:35:17.695Z,4.70
2019-01-20T00:37:46.239Z,6.03
2019-01-20T00:40:14.946Z,5.13
2019-01-20T00:42:43.537Z,4.87
2019-01-20T00:45:13.960Z,6.90
2019-01-20T00:47:42.244Z,6.10
2019-01-20T00:50:11.657Z,8.67
2019-01-20T00:52:40.009Z,6.60
2019-01-20T00:55:11.177Z,5.27
2019-01-20T00:57:40.604Z,6.50
2019-01-20T01:00:18.853Z,6.23
2019-01-20T01:02:47.220Z,6.87
2019-01-20T01:05:17.240Z,6.90
2019-01-20T01:07:45.959Z,5.83
2019-01-20T01:10:14.711Z,6.83
2019-01-20T01:12:43.633Z,5.17
2019-01-20T01:15:12.358Z,6.80
2019-01-20T01:17:40.867Z,6.43
2019-01-20T01:20:11.020Z,6.17
2019-01-20T01:22:39.564Z,6.33
2019-01-20T01:25:09.631Z,4.73
2019-01-20T01:27:38.167Z,5.27
2019-01-20T01:30:10.130Z,5.83
2019-01-20T01:32:38.610Z,4.67
2019-01-20T01:35:07.231Z,6.30
2019-01-20T01:37:35.879Z,6.30
2019-01-20T01:40:05.416Z,5.10
2019-01-20T01:42:33.795Z,7.83
2019-01-20T01:45:02.151Z,7.90
2019-01-20T01:47:30.552Z,7.73
2019-01-20T01:49:59.140Z,8.30
2019-01-20T01:52:27.582Z,6.50
2019-01-20T01:54:55.893Z,3.93
2019-01-20T01:57:25.161Z,6.93
2019-01-20T01:59:54.781Z,4.00
2019-01-20T02:02:23.085Z,5.80
2019-01-20T02:04:51.554Z,7.07
2019-01-20T02:07:20.140Z,4.17
2019-01-20T02:09:48.509Z,8.87
2019-01-20T02:12:16.889Z,6.00
2019-01-20T02:14:45.643Z,3.27
2019-01-20T02:17:14.046Z,5.83
2019-01-20T02:19:42.420Z,4.67
2019-01-20T02:22:10.982Z,6.30
2019-01-20T02:24:39.400Z,7.40
2019-01-20T02:27:07.786Z,7.80
2019-01-20T02:29:36.221Z,8.03
2019-01-20T02:32:05.110Z,4.17
2019-01-20T02:34:33.531Z,5.00
2019-01-20T02:37:01.868Z,3.87
2019-01-20T02:39:30.553Z,4.10
2019-01-20T02:41:59.034Z,3.10
2019-01-20T02:44:27.614Z,4.80
2019-01-20T02:46:56.234Z,4.43
2019-01-20T02:49:24.619Z,3.93
2019-01-20T02:51:53.045Z,1.97
2019-01-20T02:54:21.539Z,2.40
2019-01-20T02:56:49.942Z,2.37
2019-01-20T02:59:18.396Z,3.30
2019-01-20T03:01:48.818Z,3.90
2019-01-20T03:04:17.392Z,2.27
2019-01-20T03:06:45.885Z,2.33
2019-01-20T03:09:14.414Z,1.77
2019-01-20T03:11:42.777Z,2.90
2019-01-20T03:14:11.119Z,3.83
2019-01-20T03:16:39.700Z,4.57
2019-01-20T03:19:08.069Z,2.50
2019-01-20T03:21:36.559Z,2.83
2019-01-20T03:24:05.551Z,4.73
2019-01-20T03:26:33.931Z,2.83
2019-01-20T03:29:02.411Z,4.37
2019-01-20T03:31:30.825Z,3.53
2019-01-20T03:33:59.296Z,2.87
2019-01-20T03:36:27.761Z,7.67
2019-01-20T03:38:56.166Z,4.07
2019-01-20T03:41:24.424Z,5.27
2019-01-20T03:43:52.987Z,5.50
2019-01-20T03:46:21.500Z,6.73
2019-01-20T03:48:49.869Z,6.10
2019-01-20T03:51:18.279Z,6.43
2019-01-20T03:53:46.804Z,8.03
2019-01-20T03:56:15.217Z,5.43
2019-01-20T03:58:43.721Z,6.40
2019-01-20T04:01:11.973Z,6.37
2019-01-20T04:03:40.419Z,5.73
2019-01-20T04:06:08.795Z,5.57
2019-01-20T04:08:37.116Z,4.93
2019-01-20T04:11:05.673Z,3.43
2019-01-20T04:13:34.374Z,2.97
2019-01-20T04:16:02.854Z,6.13
2019-01-20T04:18:31.409Z,3.47
2019-01-20T04:20:59.884Z,4.73
2019-01-20T04:23:28.298Z,3.30
2019-01-20T04:25:56.946Z,3.00
2019-01-20T04:28:25.562Z,4.00
2019-01-20T04:30:53.932Z,2.93
2019-01-20T04:33:22.420Z,5.30
2019-01-20T04:35:50.766Z,2.43
2019-01-20T04:38:19.088Z,3.00
2019-01-20T04:40:47.315Z,5.77
2019-01-20T04:43:16.037Z,4.73
2019-01-20T04:45:44.429Z,2.67
2019-01-20T04:48:12.759Z,4.53
2019-01-20T04:50:41.236Z,4.33
2019-01-20T04:53:09.651Z,8.27
2019-01-20T04:55:37.922Z,3.20
2019-01-20T04:58:06.679Z,3.97
2019-01-20T05:00:35.094Z,3.17
2019-01-20T05:03:03.463Z,4.60
2019-01-20T05:05:31.914Z,2.77
2019-01-20T05:08:00.497Z,3.60
2019-01-20T05:10:28.814Z,2.77
2019-01-20T05:12:57.193Z,4.00
2019-01-20T05:15:25.836Z,3.30
2019-01-20T05:17:54.248Z,2.37
2019-01-20T05:20:22.667Z,2.97
2019-01-20T05:22:51.072Z,3.40
2019-01-20T05:25:19.479Z,4.67
2019-01-20T05:27:47.968Z,3.67
2019-01-20T05:30:18.507Z,1.90
2019-01-20T05:32:46.872Z,5.83
2019-01-20T05:35:16.176Z,3.47
2019-01-20T05:37:44.539Z,5.70
2019-01-20T05:40:14.147Z,2.30
2019-01-20T05:42:46.317Z,1.93
2019-01-20T05:45:14.928Z,4.67
2019-01-20T05:47:43.452Z,3.73
2019-01-20T05:50:12.985Z,5.73
2019-01-20T05:52:41.473Z,4.00
2019-01-20T05:55:10.356Z,2.33
2019-01-20T05:57:39.872Z,3.93
2019-01-20T06:00:17.631Z,3.47
2019-01-20T06:02:46.117Z,4.83
2019-01-20T06:05:14.416Z,7.27
2019-01-20T06:07:42.975Z,6.43
2019-01-20T06:10:12.294Z,7.67
2019-01-20T06:12:40.460Z,6.50
2019-01-20T06:15:12.314Z,6.07
2019-01-20T06:17:40.909Z,4.57
2019-01-20T06:20:09.619Z,4.50
2019-01-20T06:22:38.154Z,7.23
2019-01-20T06:25:06.880Z,8.73
2019-01-20T06:27:35.425Z,6.60
2019-01-20T06:30:06.084Z,8.43
2019-01-20T06:32:34.633Z,10.87
2019-01-20T06:35:03.354Z,14.10
2019-01-20T06:37:31.799Z,21.93
2019-01-20T06:40:00.403Z,33.93
2019-01-20T06:42:28.924Z,20.40
2019-01-20T06:44:57.159Z,12.17
2019-01-20T06:47:25.620Z,6.70
2019-01-20T06:49:54.002Z,8.43
2019-01-20T06:52:22.411Z,6.00
2019-01-20T06:54:50.891Z,5.43
2019-01-20T06:57:19.365Z,5.93
2019-01-20T06:59:47.743Z,7.17
2019-01-20T07:02:16.197Z,5.63
2019-01-20T07:04:44.778Z,9.80
2019-01-20T07:07:13.199Z,6.43
2019-01-20T07:09:41.838Z,7.10
2019-01-20T07:12:10.259Z,5.97
2019-01-20T07:14:38.532Z,7.23
2019-01-20T07:17:07.074Z,8.57
2019-01-20T07:19:36.578Z,9.57
2019-01-20T07:22:04.712Z,11.73
2019-01-20T07:24:33.234Z,14.27
2019-01-20T07:27:01.640Z,18.83
2019-01-20T07:29:29.903Z,15.90
2019-01-20T07:31:58.491Z,20.57
2019-01-20T07:34:27.520Z,19.30
2019-01-20T07:36:56.046Z,18.20
2019-01-20T07:39:24.647Z,20.17
2019-01-20T07:41:53.209Z,18.43
2019-01-20T07:44:21.627Z,19.90
2019-01-20T07:46:50.084Z,17.53
2019-01-20T07:49:18.650Z,22.87
2019-01-20T07:51:47.183Z,19.67
2019-01-20T07:54:15.826Z,21.30
2019-01-20T07:56:44.228Z,22.40
2019-01-20T07:59:12.600Z,20.87
2019-01-20T08:01:40.968Z,21.30
2019-01-20T08:04:09.431Z,24.30
2019-01-20T08:06:37.845Z,24.50
2019-01-20T08:09:08.158Z,27.20
2019-01-20T08:11:36.610Z,26.70
2019-01-20T08:14:05.432Z,33.03
2019-01-20T08:16:33.879Z,30.53
2019-01-20T08:19:02.315Z,32.77
2019-01-20T08:21:31.150Z,34.93
2019-01-20T08:23:59.634Z,39.30
2019-01-20T08:26:28.040Z,47.93
2019-01-20T08:28:56.589Z,48.97
2019-01-20T08:31:25.067Z,44.77
2019-01-20T08:33:53.383Z,44.97
2019-01-20T08:36:21.821Z,44.33
2019-01-20T08:38:51.642Z,42.00
2019-01-20T08:41:20.344Z,36.93
2019-01-20T08:43:49.375Z,31.40
2019-01-20T08:46:22.992Z,33.23
2019-01-20T08:48:51.710Z,33.20
2019-01-20T08:51:20.309Z,33.53
2019-01-20T08:53:48.869Z,30.87
2019-01-20T08:56:17.367Z,28.53
2019-01-20T08:58:45.755Z,25.93
2019-01-20T09:01:14.219Z,26.17
2019-01-20T09:03:42.892Z,24.27
2019-01-20T09:06:11.346Z,21.73
2019-01-20T09:08:39.755Z,25.68
2019-01-20T09:11:08.230Z,23.03
2019-01-20T09:13:39.878Z,29.10
2019-01-20T09:16:07.444Z,30.80
2019-01-20T09:18:35.744Z,30.20
2019-01-20T09:21:04.304Z,32.40
2019-01-20T09:23:32.972Z,35.87
2019-01-20T09:26:01.297Z,29.87
2019-01-20T09:28:29.578Z,38.00
2019-01-20T09:30:58.004Z,31.60
2019-01-20T09:33:26.605Z,31.60
2019-01-20T09:35:54.948Z,24.40
2019-01-20T09:38:23.498Z,23.13
2019-01-20T09:40:52.176Z,14.67
2019-01-20T09:43:20.559Z,18.30
2019-01-20T09:45:49.785Z,15.75
2019-01-20T09:48:18.302Z,13.13
2019-01-20T09:50:46.715Z,14.40
2019-01-20T09:53:15.092Z,17.07
2019-01-20T09:55:43.332Z,16.03
2019-01-20T09:58:11.917Z,16.90
2019-01-20T10:00:40.436Z,15.13
2019-01-20T10:03:16.025Z,14.47
2019-01-20T10:05:39.342Z,19.87
2019-01-20T10:08:07.893Z,18.30
2019-01-20T10:10:36.267Z,20.02
2019-01-20T10:13:04.891Z,19.40
2019-01-20T10:15:33.228Z,21.70
2019-01-20T10:18:01.709Z,19.30
2019-01-20T10:20:31.449Z,21.68
2019-01-20T10:23:00.405Z,21.85
2019-01-20T10:25:28.873Z,23.22
2019-01-20T10:27:57.506Z,34.67
2019-01-20T10:30:30.764Z,22.58
2019-01-20T10:32:59.181Z,20.15
2019-01-20T10:35:37.043Z,20.80
2019-01-20T10:38:07.037Z,19.95
2019-01-20T10:40:35.471Z,18.80
2019-01-20T10:43:03.923Z,18.80
2019-01-20T10:45:32.242Z,17.50
2019-01-20T10:48:00.775Z,20.08
2019-01-20T10:50:29.190Z,18.87
2019-01-20T10:52:57.659Z,17.60
2019-01-20T10:55:26.319Z,19.62
2019-01-20T10:57:54.801Z,18.60
2019-01-20T11:00:25.838Z,19.65
2019-01-20T11:02:55.649Z,20.92
2019-01-20T11:05:28.890Z,21.68
2019-01-20T11:07:54.490Z,23.75
2019-01-20T11:10:23.039Z,23.65
2019-01-20T11:12:51.664Z,25.10
2019-01-20T11:15:20.136Z,23.22
2019-01-20T11:17:48.718Z,24.07
2019-01-20T11:20:17.782Z,27.90
2019-01-20T11:22:46.293Z,25.15
2019-01-20T11:25:17.741Z,25.57
2019-01-20T11:27:46.279Z,24.37
2019-01-20T11:30:14.780Z,22.35
2019-01-20T11:32:43.251Z,19.98
2019-01-20T11:35:13.899Z,21.48
2019-01-20T11:37:42.466Z,17.95
2019-01-20T11:40:11.900Z,16.27
2019-01-20T11:42:40.449Z,13.55
2019-01-20T11:45:30.126Z,12.03
2019-01-20T11:47:58.710Z,13.47
2019-01-20T11:50:27.150Z,13.70
2019-01-20T11:52:55.599Z,14.93
2019-01-20T11:55:24.258Z,13.87
2019-01-20T11:57:52.664Z,14.07
2019-01-20T12:00:32.478Z,11.60
2019-01-20T12:03:01.110Z,12.30
2019-01-20T12:05:30.024Z,13.37
2019-01-20T12:07:58.534Z,12.83
2019-01-20T12:10:27.153Z,11.35
2019-01-20T12:13:04.097Z,11.10
2019-01-20T12:15:32.426Z,10.10
2019-01-20T12:18:00.784Z,11.23
2019-01-20T12:20:29.142Z,13.33
2019-01-20T12:22:57.916Z,14.80
2019-01-20T12:25:26.333Z,15.70
2019-01-20T12:27:54.724Z,14.37
2019-01-20T12:30:25.546Z,15.17
2019-01-20T12:32:54.027Z,11.80
2019-01-20T12:35:22.472Z,12.97
2019-01-20T12:37:51.051Z,11.27
2019-01-20T12:40:29.529Z,12.93
2019-01-20T12:42:58.251Z,12.87
2019-01-20T12:45:26.673Z,14.73
2019-01-20T12:47:55.214Z,15.47
2019-01-20T12:50:23.733Z,12.77
2019-01-20T12:52:52.096Z,11.67
2019-01-20T12:55:20.653Z,12.20
2019-01-20T12:57:49.087Z,11.27
2019-01-20T13:00:18.068Z,7.73
2019-01-20T13:02:46.614Z,7.80
2019-01-20T13:05:15.046Z,6.80
2019-01-20T13:07:43.291Z,8.17
2019-01-20T13:10:13.100Z,6.33
2019-01-20T13:12:41.654Z,5.07
2019-01-20T13:15:12.318Z,5.50
2019-01-20T13:17:40.867Z,4.87
2019-01-20T13:20:12.828Z,6.50
2019-01-20T13:22:41.411Z,5.20
2019-01-20T13:25:11.853Z,5.17
2019-01-20T13:27:40.318Z,4.17
2019-01-20T13:30:15.508Z,4.97
2019-01-20T13:32:43.971Z,4.93
2019-01-20T13:35:12.846Z,4.57
2019-01-20T13:37:43.668Z,9.23
2019-01-20T13:40:15.266Z,5.67
2019-01-20T13:42:43.733Z,4.53
2019-01-20T13:45:12.803Z,5.83
2019-01-20T13:47:41.208Z,4.70
2019-01-20T13:50:12.961Z,6.27
2019-01-20T13:52:41.313Z,5.30
2019-01-20T13:55:11.504Z,4.67
2019-01-20T13:57:40.109Z,7.43
2019-01-20T14:00:14.911Z,4.50
2019-01-20T14:02:43.415Z,3.77
2019-01-20T14:05:11.922Z,4.73
2019-01-20T14:07:40.374Z,6.17
2019-01-20T14:10:10.212Z,6.33
2019-01-20T14:12:38.590Z,4.80
2019-01-20T14:15:07.985Z,5.10
2019-01-20T14:17:36.384Z,6.20
2019-01-20T14:20:08.149Z,4.37
2019-01-20T14:22:36.682Z,9.90
2019-01-20T14:25:06.875Z,5.03
2019-01-20T14:27:35.113Z,7.37
2019-01-20T14:30:04.583Z,3.77
2019-01-20T14:32:33.370Z,4.33
2019-01-20T14:35:03.101Z,5.10
2019-01-20T14:37:31.398Z,3.47
2019-01-20T14:39:59.556Z,4.30
2019-01-20T14:42:28.330Z,4.77
2019-01-20T14:45:01.033Z,4.33
2019-01-20T14:47:27.708Z,6.57
2019-01-20T14:49:56.519Z,9.93
2019-01-20T14:52:25.781Z,5.73
2019-01-20T14:54:54.514Z,5.87
2019-01-20T14:57:23.333Z,7.20
2019-01-20T14:59:52.363Z,8.30
2019-01-20T15:02:21.231Z,5.33
2019-01-20T15:04:50.007Z,11.60
2019-01-20T15:07:18.971Z,5.87
2019-01-20T15:09:47.750Z,6.53
2019-01-20T15:12:16.537Z,7.10
2019-01-20T15:14:45.520Z,6.53
2019-01-20T15:17:14.602Z,6.13
2019-01-20T15:19:43.597Z,5.87
2019-01-20T15:22:12.716Z,6.03
2019-01-20T15:24:41.815Z,4.80
2019-01-20T15:27:10.803Z,5.57
2019-01-20T15:29:39.688Z,8.20
2019-01-20T15:32:08.423Z,5.63
2019-01-20T15:34:37.183Z,5.20
2019-01-20T15:37:08.707Z,5.67
2019-01-20T15:39:37.601Z,8.63
2019-01-20T15:42:06.441Z,7.97
2019-01-20T15:44:35.176Z,5.97
2019-01-20T15:47:04.876Z,7.80
2019-01-20T15:49:33.382Z,11.27
2019-01-20T15:52:02.441Z,10.93
2019-01-20T15:54:30.878Z,5.03
2019-01-20T15:57:00.014Z,7.67
2019-01-20T15:59:29.188Z,5.33
2019-01-20T16:01:57.909Z,7.77
2019-01-20T16:04:26.400Z,6.47
2019-01-20T16:06:55.450Z,6.33
2019-01-20T16:09:24.265Z,7.27
2019-01-20T16:11:53.162Z,8.20
2019-01-20T16:14:22.676Z,13.83
2019-01-20T16:16:51.595Z,10.77
2019-01-20T16:19:20.352Z,10.13
2019-01-20T16:21:49.262Z,14.43
2019-01-20T16:24:18.148Z,14.63
2019-01-20T16:26:46.544Z,10.67
2019-01-20T16:29:15.013Z,9.53
2019-01-20T16:31:43.296Z,9.13
2019-01-20T16:34:11.844Z,10.80
2019-01-20T16:36:40.257Z,7.80
2019-01-20T16:39:08.852Z,10.13
2019-01-20T16:41:37.219Z,9.77
2019-01-20T16:44:05.765Z,8.10
2019-01-20T16:46:34.280Z,9.57
2019-01-20T16:49:02.761Z,9.03
2019-01-20T16:51:31.353Z,9.87
2019-01-20T16:53:59.729Z,11.63
2019-01-20T16:56:29.506Z,15.60
2019-01-20T16:58:58.081Z,14.43
2019-01-20T17:01:26.664Z,11.90
2019-01-20T17:03:54.843Z,14.87
2019-01-20T17:06:23.659Z,13.50
2019-01-20T17:08:52.003Z,13.20
2019-01-20T17:11:20.572Z,15.47
2019-01-20T17:13:49.055Z,16.27
2019-01-20T17:16:17.751Z,14.53
2019-01-20T17:18:46.155Z,17.77
2019-01-20T17:21:14.530Z,17.23
2019-01-20T17:23:42.989Z,15.10
2019-01-20T17:26:11.804Z,15.80
2019-01-20T17:28:40.056Z,14.40
2019-01-20T17:31:08.737Z,14.87
2019-01-20T17:33:37.503Z,13.40
2019-01-20T17:36:06.004Z,15.13
2019-01-20T17:38:34.587Z,17.70
2019-01-20T17:41:03.318Z,19.60
2019-01-20T17:43:32.058Z,12.30
2019-01-20T17:46:00.412Z,12.07
2019-01-20T17:48:28.847Z,13.80
2019-01-20T17:50:57.399Z,17.40
2019-01-20T17:53:25.922Z,14.73
2019-01-20T17:55:54.286Z,16.17
2019-01-20T17:58:22.737Z,14.60
2019-01-20T18:00:58.016Z,16.87
2019-01-20T18:03:26.468Z,17.63
2019-01-20T18:05:54.939Z,16.83
2019-01-20T18:08:24.645Z,16.20
2019-01-20T18:10:53.125Z,14.80
2019-01-20T18:13:21.812Z,17.87
2019-01-20T18:15:54.307Z,19.43
2019-01-20T18:18:20.318Z,16.17
2019-01-20T18:20:48.991Z,18.67
2019-01-20T18:23:17.401Z,23.00
2019-01-20T18:25:45.732Z,22.67
2019-01-20T18:28:14.127Z,24.13
2019-01-20T18:30:42.528Z,24.73
2019-01-20T18:33:10.916Z,24.80
2019-01-20T18:35:39.670Z,28.03
2019-01-20T18:38:08.282Z,30.03
2019-01-20T18:40:36.733Z,31.40
2019-01-20T18:43:05.560Z,33.90
2019-01-20T18:45:33.938Z,22.40
2019-01-20T18:48:02.295Z,24.07
2019-01-20T18:50:32.427Z,15.83
2019-01-20T18:53:00.911Z,18.43
2019-01-20T18:55:29.581Z,24.37
2019-01-20T18:57:58.145Z,22.57
2019-01-20T19:00:31.660Z,18.43
2019-01-20T19:03:00.224Z,20.43
2019-01-20T19:05:28.660Z,22.93
2019-01-20T19:07:56.973Z,24.73
2019-01-20T19:10:25.460Z,21.93
2019-01-20T19:12:53.978Z,20.67
2019-01-20T19:15:22.655Z,24.53
2019-01-20T19:17:51.311Z,21.37
2019-01-20T19:20:21.264Z,25.50
2019-01-20T19:22:51.262Z,30.50
2019-01-20T19:25:20.531Z,29.30
2019-01-20T19:27:48.853Z,25.53
2019-01-20T19:30:25.289Z,30.27
2019-01-20T19:32:53.692Z,27.43
2019-01-20T19:35:22.066Z,29.07
2019-01-20T19:37:50.511Z,27.10
2019-01-20T19:40:19.207Z,31.77
2019-01-20T19:42:47.519Z,31.80
2019-01-20T19:45:16.935Z,27.40
2019-01-20T19:47:45.163Z,25.83
2019-01-20T19:50:13.972Z,34.70
2019-01-20T19:52:42.433Z,31.40
2019-01-20T19:55:13.828Z,31.87
2019-01-20T19:57:43.476Z,32.97
2019-01-20T20:00:14.833Z,26.77
2019-01-20T20:02:43.053Z,27.73
2019-01-20T20:05:14.592Z,33.00
2019-01-20T20:07:43.181Z,26.73
2019-01-20T20:10:12.672Z,24.43
2019-01-20T20:12:41.260Z,23.80
2019-01-20T20:15:13.005Z,21.80
2019-01-20T20:17:41.467Z,23.07
2019-01-20T20:20:10.801Z,27.30
2019-01-20T20:22:39.347Z,22.10
2019-01-20T20:25:08.460Z,21.23
2019-01-20T20:27:36.857Z,20.50
2019-01-20T20:30:09.797Z,20.03
2019-01-20T20:32:38.022Z,21.60
2019-01-20T20:35:07.541Z,23.23
2019-01-20T20:37:35.884Z,24.03
2019-01-20T20:40:05.572Z,32.03
2019-01-20T20:42:34.054Z,28.17
2019-01-20T20:45:03.170Z,28.40
2019-01-20T20:47:31.575Z,26.00
2019-01-20T20:49:59.945Z,25.77
2019-01-20T20:52:28.389Z,23.93
2019-01-20T20:54:56.693Z,20.87
2019-01-20T20:57:25.072Z,21.57
2019-01-20T20:59:53.517Z,23.13
2019-01-20T21:02:22.368Z,21.00
2019-01-20T21:04:50.482Z,18.20
2019-01-20T21:07:18.989Z,18.17
2019-01-20T21:09:47.376Z,21.63
2019-01-20T21:12:16.450Z,21.40
2019-01-20T21:14:45.223Z,19.37
2019-01-20T21:17:13.753Z,18.77
2019-01-20T21:19:42.285Z,23.37
2019-01-20T21:22:10.523Z,20.40
2019-01-20T21:24:38.911Z,18.47
2019-01-20T21:27:07.144Z,18.87
2019-01-20T21:29:35.839Z,19.77
2019-01-20T21:32:04.423Z,21.70
2019-01-20T21:34:32.961Z,21.37
2019-01-20T21:37:01.339Z,21.03
2019-01-20T21:39:29.644Z,18.57
2019-01-20T21:41:58.094Z,19.03
2019-01-20T21:44:26.534Z,19.17
2019-01-20T21:46:54.995Z,18.33
2019-01-20T21:49:23.247Z,17.03
2019-01-20T21:51:51.608Z,18.27
2019-01-20T21:54:20.329Z,25.00
2019-01-20T21:56:48.712Z,20.67
2019-01-20T21:59:17.116Z,22.43
2019-01-20T22:01:46.601Z,18.57
2019-01-20T22:04:15.275Z,21.23
2019-01-20T22:06:43.820Z,20.53
2019-01-20T22:09:12.158Z,21.30
2019-01-20T22:11:40.508Z,21.33
2019-01-20T22:14:08.922Z,22.70
2019-01-20T22:16:37.265Z,17.20
2019-01-20T22:19:05.608Z,19.30
2019-01-20T22:21:34.124Z,19.43
2019-01-20T22:24:02.487Z,19.47
2019-01-20T22:26:31.051Z,17.27
2019-01-20T22:28:59.543Z,18.40
2019-01-20T22:31:27.931Z,15.57
2019-01-20T22:33:56.389Z,16.43
2019-01-20T22:36:24.869Z,15.83
2019-01-20T22:38:53.351Z,16.77
2019-01-20T22:41:21.963Z,13.00
2019-01-20T22:43:50.396Z,14.80
2019-01-20T22:46:18.812Z,16.17
2019-01-20T22:48:47.017Z,19.13
2019-01-20T22:51:15.955Z,18.00
2019-01-20T22:53:44.337Z,16.50
2019-01-20T22:56:12.637Z,17.30
2019-01-20T22:58:40.996Z,15.43
2019-01-20T23:01:17.845Z,16.33
2019-01-20T23:03:46.242Z,14.97
2019-01-20T23:06:15.031Z,14.83
2019-01-20T23:08:43.445Z,15.30
2019-01-20T23:11:11.888Z,15.97
2019-01-20T23:13:40.188Z,18.97
2019-01-20T23:16:08.665Z,15.60
2019-01-20T23:18:42.072Z,18.77
2019-01-20T23:21:10.473Z,16.17
2019-01-20T23:23:38.601Z,15.43
2019-01-20T23:26:06.970Z,14.67
2019-01-20T23:28:54.700Z,15.60
2019-01-20T23:31:23.531Z,15.23
2019-01-20T23:33:51.792Z,13.70
2019-01-20T23:36:20.244Z,13.87
2019-01-20T23:38:48.596Z,19.37
2019-01-20T23:41:16.829Z,17.57
2019-01-20T23:43:45.092Z,17.07
2019-01-20T23:46:13.960Z,16.17
2019-01-20T23:48:42.365Z,17.20
2019-01-20T23:51:10.635Z,15.47
2019-01-20T23:53:39.126Z,18.03
2019-01-20T23:56:07.881Z,14.97
2019-01-20T23:58:36.312Z,14.97
